Time;durP1;ratioP1;P1;durP2;ratioP2;P2;SDS_P1;SDS_P2;PMS_P1;PMS_P2;Temp;Humidity;BMP_temperature;BMP_pressure;BME280_temperature;BME280_humidity;BME280_pressure;Samples;Min_cycle;Max_cycle;Signal;HPM_P1;HPM_P2
2023/09/13 00:01:39;;;;;;;;;;;;;;;17.80;74.51;100961.41;105994;1267;62248;-81
2023/09/13 00:04:05;;;;;;;;;;;;;;;17.78;74.71;100961.05;105855;1272;125974;-82
2023/09/13 00:06:32;;;;;;;;;;;;;;;17.77;74.95;100962.11;105932;1268;60341;-82
2023/09/13 00:08:58;;;;;;;;;;;;;;;17.78;75.05;100960.70;106019;1268;62451;-80
2023/09/13 00:11:25;;;;;;;;;;;;;;;17.78;75.24;100963.53;105823;1268;126240;-80
2023/09/13 00:13:51;;;;;;;;;;;;;;;17.78;75.26;100965.84;105819;1273;75638;-80
2023/09/13 00:16:18;;;;;;;;;;;;;;;17.78;75.42;100962.12;105811;1268;125798;-78
2023/09/13 00:18:44;;;;;;;;;;;;;;;17.78;75.71;100960.15;105719;1268;72862;-79
2023/09/13 00:21:11;;;;;;;;;;;;;;;17.79;76.00;100956.26;105664;1268;125737;-79
2023/09/13 00:23:38;;;;;;;;;;;;;;;17.83;76.28;100956.80;105833;1268;60081;-78
2023/09/13 00:26:05;;;;;;;;;;;;;;;17.88;76.58;100955.20;105922;1268;75630;-79
2023/09/13 00:28:31;;;;;;;;;;;;;;;17.92;76.94;100958.21;105798;1268;125199;-79
2023/09/13 00:30:58;;;;;;;;;;;;;;;17.95;77.02;100959.27;105847;1268;62197;-79
2023/09/13 00:33:25;;;;;;;;;;;;;;;17.98;77.25;100957.85;105720;1268;125649;-80
2023/09/13 00:35:55;;;;;;;;;;;;;;;17.99;77.38;100955.01;105773;1267;62011;-79
2023/09/13 00:38:22;;;;;;;;;;;;;;;18.01;77.53;100952.16;105896;1268;74111;-79
2023/09/13 00:40:48;;;;;;;;;;;;;;;18.02;77.56;100946.48;105714;1272;125302;-79
2023/09/13 00:43:15;;;;;;;;;;;;;;;18.01;77.64;100948.79;105936;1270;62081;-79
2023/09/13 00:45:41;;;;;;;;;;;;;;;18.01;77.65;100945.59;105770;1271;125513;-79
2023/09/13 00:48:08;;;;;;;;;;;;;;;18.00;77.83;100942.40;105679;1276;62078;-79
2023/09/13 00:50:36;;;;;;;;;;;;;;;18.00;77.87;100938.48;105714;1268;61982;-78
2023/09/13 00:53:05;;;;;;;;;;;;;;;18.01;78.03;100939.19;105737;1268;125820;-80
2023/09/13 00:55:32;;;;;;;;;;;;;;;18.00;78.04;100938.13;105897;1273;72731;-79
2023/09/13 00:57:58;;;;;;;;;;;;;;;17.98;78.08;100939.56;105931;1267;125563;-79
2023/09/13 01:00:27;;;;;;;;;;;;;;;17.96;78.16;100936.38;105914;1273;62146;-79
2023/09/13 01:02:53;;;;;;;;;;;;;;;17.94;78.27;100937.27;105865;1267;75508;-79
2023/09/13 01:05:20;;;;;;;;;;;;;;;17.92;78.30;100938.86;105669;1272;125538;-79
2023/09/13 01:07:47;;;;;;;;;;;;;;;17.89;78.40;100942.24;105756;1273;71476;-79
2023/09/13 01:10:13;;;;;;;;;;;;;;;17.87;78.43;100946.31;105824;1267;125637;-79
2023/09/13 01:12:40;;;;;;;;;;;;;;;17.84;78.44;100951.29;105800;1268;60472;-79
2023/09/13 01:15:07;;;;;;;;;;;;;;;17.80;78.55;100955.55;105841;1273;75606;-79
2023/09/13 01:17:42;;;;;;;;;;;;;;;17.76;78.59;100955.90;105782;1273;125649;-80
2023/09/13 01:20:11;;;;;;;;;;;;;;;17.73;78.72;100938.15;106900;1273;71234;-79
2023/09/13 01:22:57;;;;;;;;;;;;;;;17.69;78.80;100940.30;105721;1273;125170;-79
2023/09/13 01:25:24;;;;;;;;;;;;;;;17.67;78.93;100941.17;105914;1268;62193;-79
2023/09/13 01:28:07;;;;;;;;;;;;;;;17.64;79.10;100937.98;105798;1268;126498;-79
2023/09/13 01:30:34;;;;;;;;;;;;;;;17.63;79.18;100934.44;105892;1268;66296;-79
2023/09/13 01:33:01;;;;;;;;;;;;;;;17.63;79.10;100925.39;105790;1271;62114;-79
2023/09/13 01:35:27;;;;;;;;;;;;;;;17.60;79.09;100919.54;105754;1268;125321;-79
2023/09/13 01:37:54;;;;;;;;;;;;;;;17.57;79.13;100921.13;105834;1268;62190;-79
2023/09/13 01:40:21;;;;;;;;;;;;;;;17.55;78.99;100920.61;105520;1268;125244;-78
2023/09/13 01:42:47;;;;;;;;;;;;;;;17.51;79.19;100921.51;105697;1273;66245;-80
2023/09/13 01:45:13;;;;;;;;;;;;;;;17.48;79.33;100924.52;105762;1271;126170;-80
2023/09/13 01:47:42;;;;;;;;;;;;;;;17.44;79.43;100922.57;105796;1268;62211;-79
2023/09/13 01:50:08;;;;;;;;;;;;;;;17.41;79.54;100923.63;105717;1268;62068;-80
2023/09/13 01:52:35;;;;;;;;;;;;;;;17.37;79.68;100916.36;105669;1273;125169;-79
2023/09/13 01:55:06;;;;;;;;;;;;;;;17.35;79.88;100912.46;105718;1276;62074;-80
2023/09/13 01:57:33;;;;;;;;;;;;;;;17.34;79.90;100906.60;105823;1268;125800;-80
2023/09/13 01:59:59;;;;;;;;;;;;;;;17.34;80.02;100910.34;105695;1270;60268;-80
2023/09/13 02:02:26;;;;;;;;;;;;;;;17.32;80.01;100910.86;105693;1274;62190;-80
2023/09/13 02:04:52;;;;;;;;;;;;;;;17.30;80.05;100911.76;105821;1273;125129;-80
2023/09/13 02:07:20;;;;;;;;;;;;;;;17.30;80.12;100917.23;105777;1268;61995;-79
2023/09/13 02:09:46;;;;;;;;;;;;;;;17.29;80.04;100918.48;105743;1268;125965;-79
2023/09/13 02:12:13;;;;;;;;;;;;;;;17.27;80.15;100920.27;105910;1268;62206;-79
2023/09/13 02:14:39;;;;;;;;;;;;;;;17.23;80.25;100922.04;105864;1272;62091;-78
2023/09/13 02:17:06;;;;;;;;;;;;;;;17.19;80.29;100924.70;105851;1268;125326;-79
2023/09/13 02:19:33;;;;;;;;;;;;;;;17.17;80.50;100926.64;105872;1272;63971;-79
2023/09/13 02:21:59;;;;;;;;;;;;;;;17.14;80.67;100929.84;105736;1273;125309;-79
2023/09/13 02:24:26;;;;;;;;;;;;;;;17.13;80.84;100937.10;105797;1273;61969;-79
2023/09/13 02:26:56;;;;;;;;;;;;;;;17.11;80.92;100945.45;105788;1273;62112;-79
2023/09/13 02:29:22;;;;;;;;;;;;;;;17.09;81.19;100947.92;105804;1268;125337;-78
2023/09/13 02:31:49;;;;;;;;;;;;;;;17.07;81.33;100949.52;105924;1267;65006;-78
2023/09/13 02:34:15;;;;;;;;;;;;;;;17.06;81.46;100947.37;105888;1267;125137;-78
2023/09/13 02:36:42;;;;;;;;;;;;;;;17.05;81.58;100945.61;105938;1268;62057;-79
2023/09/13 02:39:28;;;;;;;;;;;;;;;17.04;81.67;100945.79;105906;1269;62526;-81
2023/09/13 02:41:55;;;;;;;;;;;;;;;17.03;81.65;100940.45;105874;1272;73898;-79
2023/09/13 02:44:21;;;;;;;;;;;;;;;17.01;81.87;100937.45;105728;1268;61740;-79
2023/09/13 02:46:48;;;;;;;;;;;;;;;16.98;81.87;100934.79;105784;1268;125303;-79
2023/09/13 02:49:14;;;;;;;;;;;;;;;16.97;81.96;100926.80;105856;1268;60159;-79
2023/09/13 02:51:41;;;;;;;;;;;;;;;16.94;81.95;100924.31;105699;1268;125968;-78
2023/09/13 02:54:07;;;;;;;;;;;;;;;16.91;82.02;100922.53;105722;1268;60201;-79
2023/09/13 02:56:34;;;;;;;;;;;;;;;16.90;82.11;100927.13;105762;1273;61970;-80
2023/09/13 02:59:00;;;;;;;;;;;;;;;16.88;82.06;100927.50;105712;1270;125224;-80
2023/09/13 03:01:27;;;;;;;;;;;;;;;16.85;82.36;100921.10;105796;1273;62207;-80
2023/09/13 03:03:53;;;;;;;;;;;;;;;16.84;82.36;100918.45;105741;1272;125977;-80
2023/09/13 03:06:19;;;;;;;;;;;;;;;16.82;82.39;100916.83;105829;1274;62197;-80
2023/09/13 03:08:46;;;;;;;;;;;;;;;16.80;82.55;100915.40;105942;1271;72178;-80
2023/09/13 03:11:16;;;;;;;;;;;;;;;16.80;82.53;100917.69;105570;1268;125768;-80
2023/09/13 03:13:42;;;;;;;;;;;;;;;16.78;82.58;100917.34;105949;1272;62014;-80
2023/09/13 03:16:16;;;;;;;;;;;;;;;16.77;82.67;100915.92;105631;1275;125246;-81
2023/09/13 03:18:42;;;;;;;;;;;;;;;16.75;82.72;100914.85;105828;1275;75702;-81
2023/09/13 03:21:09;;;;;;;;;;;;;;;16.73;82.71;100917.68;105789;1272;66363;-81
2023/09/13 03:23:37;;;;;;;;;;;;;;;16.71;82.79;100911.84;105634;1270;125528;-80
2023/09/13 03:26:16;;;;;;;;;;;;;;;16.71;82.92;100913.07;105775;1267;62052;-80
2023/09/13 03:28:44;;;;;;;;;;;;;;;16.72;82.93;100910.06;105834;1280;125816;-80
2023/09/13 03:31:14;;;;;;;;;;;;;;;16.71;82.93;100909.52;105843;1270;75419;-80
2023/09/13 03:33:40;;;;;;;;;;;;;;;16.68;82.98;100907.20;105655;1270;125603;-80
2023/09/13 03:36:10;;;;;;;;;;;;;;;16.68;83.07;100905.43;105928;1271;71223;-81
2023/09/13 03:38:38;;;;;;;;;;;;;;;16.68;83.04;100904.55;105706;1267;60639;-84
2023/09/13 03:41:08;;;;;;;;;;;;;;;16.67;83.15;100904.38;105871;1272;125375;-82
2023/09/13 03:43:34;;;;;;;;;;;;;;;16.65;83.19;100899.05;105860;1274;75514;-81
2023/09/13 03:46:01;;;;;;;;;;;;;;;16.62;83.18;100896.92;105760;1268;125633;-84
2023/09/13 03:48:28;;;;;;;;;;;;;;;16.60;83.17;100895.67;105766;1273;71856;-83
2023/09/13 03:50:55;;;;;;;;;;;;;;;16.59;83.42;100894.77;105863;1268;60258;-81
2023/09/13 03:53:21;;;;;;;;;;;;;;;16.58;83.47;100891.60;105725;1269;125264;-80
2023/09/13 03:55:48;;;;;;;;;;;;;;;16.57;83.71;100886.28;105575;1273;60125;-80
2023/09/13 03:58:14;;;;;;;;;;;;;;;16.56;83.69;100890.00;105786;1268;125623;-80
2023/09/13 04:00:41;;;;;;;;;;;;;;;16.56;83.72;100888.94;105929;1273;62136;-79
2023/09/13 04:03:07;;;;;;;;;;;;;;;16.55;83.76;100889.11;105797;1273;60059;-79
2023/09/13 04:05:34;;;;;;;;;;;;;;;16.54;83.86;100888.58;105693;1273;125256;-80
2023/09/13 04:08:01;;;;;;;;;;;;;;;16.54;83.97;100886.10;105747;1268;62018;-79
2023/09/13 04:10:34;;;;;;;;;;;;;;;16.54;84.06;100885.57;105791;1274;125334;-80
2023/09/13 04:13:00;;;;;;;;;;;;;;;16.54;84.08;100883.80;105620;1269;71232;-80
2023/09/13 04:15:27;;;;;;;;;;;;;;;16.55;84.22;100882.20;105748;1268;125914;-80
2023/09/13 04:17:53;;;;;;;;;;;;;;;16.57;84.33;100881.48;105786;1273;62011;-80
2023/09/13 04:20:20;;;;;;;;;;;;;;;16.61;84.34;100883.10;105792;1272;75490;-79
2023/09/13 04:22:47;;;;;;;;;;;;;;;16.63;84.28;100884.34;105673;1268;125825;-81
2023/09/13 04:25:13;;;;;;;;;;;;;;;16.65;84.36;100888.42;105629;1268;72745;-81
2023/09/13 04:27:44;;;;;;;;;;;;;;;16.67;84.29;100888.44;105535;1274;125508;-80
2023/09/13 04:30:11;;;;;;;;;;;;;;;16.69;84.40;100890.38;105904;1273;61944;-80
2023/09/13 04:32:38;;;;;;;;;;;;;;;16.71;84.35;100888.98;105989;1268;75324;-80
2023/09/13 04:35:05;;;;;;;;;;;;;;;16.75;84.44;100888.27;105826;1272;125186;-80
2023/09/13 04:37:31;;;;;;;;;;;;;;;16.81;84.64;100883.32;106130;1268;72412;-80
2023/09/13 04:39:58;;;;;;;;;;;;;;;16.97;84.89;100885.84;105815;1270;127098;-79
2023/09/13 04:42:24;;;;;;;;;;;;;;;17.15;84.89;100882.84;105876;1272;62146;-80
2023/09/13 04:44:51;;;;;;;;;;;;;;;17.35;84.72;100883.20;106202;1272;62055;-80
2023/09/13 04:47:18;;;;;;;;;;;;;;;17.50;84.51;100882.81;105937;1274;125304;-80
2023/09/13 04:49:44;;;;;;;;;;;;;;;17.65;84.16;100877.64;105850;1273;72522;-80
2023/09/13 04:52:13;;;;;;;;;;;;;;;17.75;83.78;100877.45;105786;1271;125353;-81
2023/09/13 04:54:39;;;;;;;;;;;;;;;17.83;83.41;100876.39;105937;1270;62129;-81
2023/09/13 04:57:06;;;;;;;;;;;;;;;17.91;83.26;100874.06;105832;1270;62006;-79
2023/09/13 04:59:43;;;;;;;;;;;;;;;17.98;83.12;100871.39;105866;1269;125482;-82
2023/09/13 05:02:12;;;;;;;;;;;;;;;18.03;82.80;100861.41;105672;1271;73071;-82
2023/09/13 05:04:39;;;;;;;;;;;;;;;18.08;82.76;100855.01;105790;1269;125892;-82
2023/09/13 05:07:05;;;;;;;;;;;;;;;18.17;82.73;100855.68;105921;1268;62110;-83
2023/09/13 05:09:32;;;;;;;;;;;;;;;18.26;82.49;100860.43;105795;1272;125663;-82
2023/09/13 05:11:59;;;;;;;;;;;;;;;18.37;82.45;100856.64;106047;1272;64282;-82
2023/09/13 05:14:26;;;;;;;;;;;;;;;18.52;82.46;100850.52;105638;1273;72681;-83
2023/09/13 05:16:52;;;;;;;;;;;;;;;18.63;82.01;100851.69;105788;1270;126710;-83
2023/09/13 05:19:19;;;;;;;;;;;;;;;18.75;81.93;100856.05;105861;1273;62078;-83
2023/09/13 05:22:10;;;;;;;;;;;;;;;18.90;81.68;100855.27;105746;1276;125360;-82
2023/09/13 05:24:37;;;;;;;;;;;;;;;19.04;81.32;100854.61;105887;1270;66498;-86
2023/09/13 05:27:03;;;;;;;;;;;;;;;19.16;81.04;100855.23;105662;1276;71432;-86
2023/09/13 05:29:30;;;;;;;;;;;;;;;19.26;80.79;100857.64;105610;1270;125394;-86
2023/09/13 05:31:56;;;;;;;;;;;;;;;19.36;80.56;100858.61;105945;1273;62149;-85
2023/09/13 05:34:23;;;;;;;;;;;;;;;19.49;80.41;100850.48;105840;1271;125241;-82
2023/09/13 05:36:49;;;;;;;;;;;;;;;19.65;80.37;100851.02;105709;1271;66280;-82
2023/09/13 05:39:16;;;;;;;;;;;;;;;19.82;80.27;100849.27;106162;1273;62862;-82
2023/09/13 05:41:42;;;;;;;;;;;;;;;20.00;79.90;100852.08;106109;1273;125413;-82
2023/09/13 05:44:09;;;;;;;;;;;;;;;20.16;79.59;100858.27;105900;1273;62078;-82
2023/09/13 05:46:36;;;;;;;;;;;;;;;20.31;79.30;100861.64;105798;1273;125778;-82
2023/09/13 05:49:03;;;;;;;;;;;;;;;20.51;79.23;100866.37;105729;1270;62219;-81
2023/09/13 05:51:30;;;;;;;;;;;;;;;20.71;78.98;100870.02;105880;1270;125611;-88
2023/09/13 05:53:57;;;;;;;;;;;;;;;20.92;78.62;100870.08;105924;1270;62203;-88
2023/09/13 05:56:23;;;;;;;;;;;;;;;21.05;78.22;100870.02;105795;1273;62088;-84
2023/09/13 05:58:50;;;;;;;;;;;;;;;21.11;77.65;100865.48;105827;1270;125869;-82
2023/09/13 06:01:17;;;;;;;;;;;;;;;21.11;77.37;100864.23;105997;1270;66073;-82
2023/09/13 06:03:46;;;;;;;;;;;;;;;21.10;76.99;100862.99;105847;1270;125331;-82
2023/09/13 06:06:13;;;;;;;;;;;;;;;21.08;76.87;100865.00;106180;1273;62066;-85
2023/09/13 06:08:40;;;;;;;;;;;;;;;21.09;76.81;100861.41;105985;1268;62082;-83
2023/09/13 06:11:09;;;;;;;;;;;;;;;21.12;76.72;100859.05;106118;1274;125481;-86
2023/09/13 06:13:36;;;;;;;;;;;;;;;21.16;76.86;100858.97;105755;1269;65208;-88
2023/09/13 06:16:02;;;;;;;;;;;;;;;21.25;76.66;100857.75;105922;1273;124777;-88
2023/09/13 06:18:29;;;;;;;;;;;;;;;21.29;76.47;100861.77;106024;1270;60471;-88
2023/09/13 06:20:55;;;;;;;;;;;;;;;21.35;76.48;100860.97;105856;1273;62040;-88
2023/09/13 06:23:32;;;;;;;;;;;;;;;21.40;76.42;100858.89;105906;1268;124431;-89
2023/09/13 06:26:02;;;;;;;;;;;;;;;21.43;76.22;100854.95;106003;1273;66023;-88
2023/09/13 06:28:31;;;;;;;;;;;;;;;21.46;76.14;100849.90;105798;1273;124706;-88
2023/09/13 06:30:58;;;;;;;;;;;;;;;21.48;75.93;100850.05;105833;1270;62091;-88
2023/09/13 06:33:25;;;;;;;;;;;;;;;21.50;76.00;100844.66;105872;1273;125536;-88
2023/09/13 06:35:51;;;;;;;;;;;;;;;21.52;75.99;100844.98;105890;1270;75892;-88
2023/09/13 06:38:18;;;;;;;;;;;;;;;21.54;75.93;100845.83;106305;1269;65595;-88
2023/09/13 06:40:47;;;;;;;;;;;;;;;21.60;75.97;100851.43;105855;1268;124651;-90
2023/09/13 06:43:21;;;;;;;;;;;;;;;21.65;75.88;100848.65;106113;1272;62155;-87
2023/09/13 06:45:47;;;;;;;;;;;;;;;21.67;75.94;100853.44;105748;1273;125034;-89
2023/09/13 06:48:14;;;;;;;;;;;;;;;21.71;76.01;100854.80;105813;1274;74149;-88
2023/09/13 06:50:41;;;;;;;;;;;;;;;21.78;76.12;100857.88;105974;1274;66298;-88
2023/09/13 06:53:08;;;;;;;;;;;;;;;21.83;75.99;100861.89;105822;1271;124796;-89
2023/09/13 06:55:34;;;;;;;;;;;;;;;21.82;75.78;100858.16;105819;1274;62221;-89
2023/09/13 06:58:02;;;;;;;;;;;;;;;21.82;75.87;100856.19;105947;1270;125481;-88
2023/09/13 07:00:29;;;;;;;;;;;;;;;21.88;76.03;100856.95;106202;1270;75523;-88
2023/09/13 07:02:55;;;;;;;;;;;;;;;21.95;75.94;100860.39;106215;1269;62247;-88
2023/09/13 07:05:22;;;;;;;;;;;;;;;22.02;76.02;100864.19;105916;1270;125437;-89
2023/09/13 07:07:48;;;;;;;;;;;;;;;22.12;75.93;100863.63;106069;1268;60500;-88
2023/09/13 07:10:15;;;;;;;;;;;;;;;22.26;76.01;100873.35;106180;1269;125467;-88
2023/09/13 07:12:41;;;;;;;;;;;;;;;22.38;75.73;100870.95;105839;1268;74195;-88
2023/09/13 07:15:08;;;;;;;;;;;;;;;22.45;75.59;100866.87;105999;1270;65792;-87
2023/09/13 07:17:35;;;;;;;;;;;;;;;22.55;75.67;100868.26;105818;1270;125199;-84
2023/09/13 07:20:02;;;;;;;;;;;;;;;22.66;75.52;100868.90;105873;1270;62222;-87
2023/09/13 07:22:28;;;;;;;;;;;;;;;22.74;75.39;100870.86;105674;1270;125308;-86
2023/09/13 07:24:55;;;;;;;;;;;;;;;22.79;75.34;100872.73;105891;1273;75571;-87
2023/09/13 07:27:22;;;;;;;;;;;;;;;22.82;75.28;100874.25;105624;1272;125568;-84
2023/09/13 07:29:49;;;;;;;;;;;;;;;22.89;75.41;100876.59;106000;1270;62113;-85
2023/09/13 07:32:19;;;;;;;;;;;;;;;22.98;75.44;100872.61;105698;1272;61974;-87
2023/09/13 07:34:45;;;;;;;;;;;;;;;23.06;75.19;100870.83;105844;1271;125249;-88
2023/09/13 07:37:12;;;;;;;;;;;;;;;23.10;75.08;100873.43;105875;1270;62038;-88
2023/09/13 07:39:39;;;;;;;;;;;;;;;23.19;75.18;100874.98;105822;1270;126037;-88
2023/09/13 07:42:06;;;;;;;;;;;;;;;23.28;75.17;100877.08;105821;1270;71668;-88
2023/09/13 07:44:32;;;;;;;;;;;;;;;23.31;74.95;100882.93;102620;1274;4369661;-88
2023/09/13 07:46:59;;;;;;;;;;;;;;;23.32;74.90;100889.88;105776;1268;126804;-88
2023/09/13 07:49:25;;;;;;;;;;;;;;;23.35;74.83;100887.66;105909;1270;60114;-88
2023/09/13 07:51:52;;;;;;;;;;;;;;;23.38;74.89;100887.77;105786;1267;125465;-87
2023/09/13 07:54:18;;;;;;;;;;;;;;;23.41;74.95;100886.25;105867;1270;60271;-88
2023/09/13 07:56:45;;;;;;;;;;;;;;;23.49;75.09;100889.80;105847;1270;60537;-87
2023/09/13 07:59:15;;;;;;;;;;;;;;;23.66;75.12;100890.42;105854;1273;125382;-88
2023/09/13 08:01:42;;;;;;;;;;;;;;;23.84;74.77;100890.67;106220;1270;73488;-87
2023/09/13 08:04:09;;;;;;;;;;;;;;;23.98;74.57;100890.30;105885;1270;124785;-88
2023/09/13 08:06:35;;;;;;;;;;;;;;;24.05;74.32;100891.69;105725;1270;72716;-87
2023/09/13 08:09:03;;;;;;;;;;;;;;;24.16;74.11;100885.47;106024;1268;62151;-87
2023/09/13 08:11:29;;;;;;;;;;;;;;;24.26;73.58;100871.00;105866;1268;124434;-86
2023/09/13 08:13:56;;;;;;;;;;;;;;;24.27;73.26;100858.79;105840;1268;62080;-88
2023/09/13 08:16:22;;;;;;;;;;;;;;;24.32;73.08;100855.22;106679;1270;124811;-89
2023/09/13 08:18:49;;;;;;;;;;;;;;;24.27;72.69;100856.98;105701;1276;71503;-89
2023/09/13 08:21:18;;;;;;;;;;;;;;;24.19;72.56;100854.90;105853;1267;62140;-86
2023/09/13 08:23:51;;;;;;;;;;;;;;;24.17;72.41;100856.95;105831;1268;124544;-86
2023/09/13 08:26:17;;;;;;;;;;;;;;;24.19;72.85;100853.48;105701;1268;74198;-86
2023/09/13 08:28:54;;;;;;;;;;;;;;;24.19;72.71;100849.86;105777;1268;124884;-85
2023/09/13 08:31:23;;;;;;;;;;;;;;;24.16;72.45;100842.61;105968;1272;62193;-83
2023/09/13 08:33:50;;;;;;;;;;;;;;;24.12;72.34;100847.22;105590;1270;125780;-87
2023/09/13 08:36:17;;;;;;;;;;;;;;;24.12;72.52;100845.80;105787;1270;62117;-89
2023/09/13 08:38:44;;;;;;;;;;;;;;;24.09;72.35;100844.09;105726;1270;75214;-85
2023/09/13 08:41:12;;;;;;;;;;;;;;;24.04;72.26;100833.80;105936;1270;125301;-84
2023/09/13 08:43:39;;;;;;;;;;;;;;;23.97;72.19;100831.35;105897;1269;72654;-85
2023/09/13 08:46:06;;;;;;;;;;;;;;;23.91;72.19;100828.12;105727;1268;125390;-88
2023/09/13 08:48:33;;;;;;;;;;;;;;;23.85;72.08;100820.95;105856;1270;60103;-87
2023/09/13 08:51:00;;;;;;;;;;;;;;;23.76;72.11;100813.10;105794;1267;61935;-87
2023/09/13 08:53:27;;;;;;;;;;;;;;;23.74;72.28;100810.13;105760;1270;125637;-87
2023/09/13 08:55:53;;;;;;;;;;;;;;;23.76;72.30;100810.25;105759;1268;71180;-86
2023/09/13 08:58:20;;;;;;;;;;;;;;;23.80;72.32;100811.77;105714;1269;125109;-87
2023/09/13 09:00:46;;;;;;;;;;;;;;;23.85;72.30;100813.75;105795;1272;62001;-87
2023/09/13 09:03:13;;;;;;;;;;;;;;;23.89;72.41;100814.38;105794;1270;75258;-87
2023/09/13 09:05:44;;;;;;;;;;;;;;;23.93;72.32;100817.31;105722;1269;125654;-87
2023/09/13 09:08:24;;;;;;;;;;;;;;;23.93;72.21;100814.27;105783;1270;71405;-88
2023/09/13 09:10:52;;;;;;;;;;;;;;;23.98;72.17;100810.72;105802;1268;125546;-87
2023/09/13 09:13:25;;;;;;;;;;;;;;;24.01;71.88;100805.94;105971;1268;62120;-88
2023/09/13 09:15:52;;;;;;;;;;;;;;;24.04;71.81;100804.24;105617;1267;126693;-85
2023/09/13 09:18:19;;;;;;;;;;;;;;;24.10;71.78;100800.48;105814;1268;65664;-85
2023/09/13 09:20:45;;;;;;;;;;;;;;;24.16;71.44;100795.29;105707;1270;72803;-86
2023/09/13 09:23:12;;;;;;;;;;;;;;;24.21;71.28;100792.27;105963;1271;124871;-86
2023/09/13 09:25:39;;;;;;;;;;;;;;;24.23;71.14;100786.63;105766;1270;60102;-86
2023/09/13 09:28:06;;;;;;;;;;;;;;;24.24;70.96;100787.14;105760;1269;124772;-86
2023/09/13 09:30:33;;;;;;;;;;;;;;;24.29;70.89;100790.05;105905;1268;66681;-85
2023/09/13 09:33:00;;;;;;;;;;;;;;;24.34;70.79;100790.60;105773;1270;71690;-84
2023/09/13 09:35:27;;;;;;;;;;;;;;;24.38;70.71;100796.39;105862;1270;124989;-84
2023/09/13 09:38:00;;;;;;;;;;;;;;;24.46;70.80;100783.77;105867;1270;62075;-86
2023/09/13 09:40:36;;;;;;;;;;;;;;;24.59;70.71;100768.67;105733;1268;124471;-84
2023/09/13 09:43:02;;;;;;;;;;;;;;;24.70;70.71;100755.02;105867;1268;65001;-86
2023/09/13 09:45:29;;;;;;;;;;;;;;;24.78;70.40;100737.68;105563;1271;125174;-84
2023/09/13 09:47:56;;;;;;;;;;;;;;;24.92;70.23;100741.35;105889;1269;62171;-84
2023/09/13 09:50:22;;;;;;;;;;;;;;;25.01;69.66;100739.42;106055;1268;62190;-84
2023/09/13 09:52:50;;;;;;;;;;;;;;;25.11;69.56;100733.16;105791;1268;125154;-84
2023/09/13 09:55:23;;;;;;;;;;;;;;;25.25;69.25;100730.50;105853;1268;65038;-84
2023/09/13 09:57:51;;;;;;;;;;;;;;;25.47;69.06;100728.29;105680;1272;125368;-85
2023/09/13 10:00:17;;;;;;;;;;;;;;;25.75;68.94;100718.60;105854;1268;62102;-84
2023/09/13 10:02:44;;;;;;;;;;;;;;;26.07;68.46;100706.42;106026;1273;62005;-84
2023/09/13 10:05:16;;;;;;;;;;;;;;;26.34;67.94;100686.95;105681;1269;126318;-87
2023/09/13 10:07:56;;;;;;;;;;;;;;;26.52;67.00;100671.79;105768;1269;64048;-87
2023/09/13 10:10:27;;;;;;;;;;;;;;;26.67;66.71;100664.37;105634;1270;124989;-86
2023/09/13 10:12:57;;;;;;;;;;;;;;;26.74;66.35;100663.15;106206;1267;62121;-87
2023/09/13 10:15:26;;;;;;;;;;;;;;;26.71;65.82;100670.47;105793;1270;62180;-87
2023/09/13 10:17:54;;;;;;;;;;;;;;;26.71;65.74;100684.17;105540;1270;76069;-88
2023/09/13 10:20:21;;;;;;;;;;;;;;;26.74;65.62;100688.91;105639;1268;66288;-84
2023/09/13 10:22:49;;;;;;;;;;;;;;;26.79;65.47;100690.67;105623;1268;125069;-84
2023/09/13 10:25:17;;;;;;;;;;;;;;;26.88;65.19;100683.80;105896;1273;61966;-85
2023/09/13 10:27:49;;;;;;;;;;;;;;;26.97;65.10;100682.12;105934;1272;125848;-85
2023/09/13 10:30:21;;;;;;;;;;;;;;;27.14;64.91;100688.05;105884;1270;75629;-84
2023/09/13 10:32:53;;;;;;;;;;;;;;;27.39;64.53;100688.20;105749;1270;62003;-84
2023/09/13 10:35:20;;;;;;;;;;;;;;;27.68;64.15;100688.31;105814;1268;124599;-85
2023/09/13 10:37:47;;;;;;;;;;;;;;;27.87;63.46;100687.77;105615;1270;62210;-83
2023/09/13 10:40:21;;;;;;;;;;;;;;;28.02;62.97;100683.83;105834;1268;126163;-84
2023/09/13 10:42:48;;;;;;;;;;;;;;;28.08;62.60;100688.02;105946;1268;65478;-84
2023/09/13 10:45:18;;;;;;;;;;;;;;;28.07;62.28;100686.98;105988;1270;62007;-84
2023/09/13 10:47:45;;;;;;;;;;;;;;;28.04;62.16;100685.48;105791;1273;124600;-86
2023/09/13 10:50:12;;;;;;;;;;;;;;;27.99;61.96;100685.23;105878;1270;62044;-83
2023/09/13 10:52:41;;;;;;;;;;;;;;;27.88;61.55;100676.55;105710;1267;124819;-85
2023/09/13 10:55:29;;;;;;;;;;;;;;;27.84;61.54;100667.88;105714;1268;65587;-84
2023/09/13 10:57:55;;;;;;;;;;;;;;;27.82;61.20;100660.75;105800;1268;125040;-84
2023/09/13 11:00:22;;;;;;;;;;;;;;;27.80;60.90;100656.34;105947;1268;63775;-85
2023/09/13 11:02:49;;;;;;;;;;;;;;;27.83;60.80;100657.09;105854;1272;60575;-86
2023/09/13 11:05:15;;;;;;;;;;;;;;;27.90;60.57;100659.32;105836;1268;124859;-87
2023/09/13 11:08:05;;;;;;;;;;;;;;;;;;;;;
2023/09/13 11:10:55;;;;;;;;;;;;;;;28.20;59.97;100639.98;105337;1276;124954;-87
2023/09/13 11:13:28;;;;;;;;;;;;;;;28.26;59.62;100632.25;105277;1273;62875;-86
2023/09/13 11:15:56;;;;;;;;;;;;;;;28.39;59.42;100629.10;105125;1273;125512;-84
2023/09/13 11:18:25;;;;;;;;;;;;;;;28.58;58.98;100637.35;105503;1276;62130;-83
2023/09/13 11:20:51;;;;;;;;;;;;;;;28.78;58.58;100649.48;105541;1276;66724;-84
2023/09/13 11:23:21;;;;;;;;;;;;;;;28.95;58.30;100650.77;105450;1273;125609;-85
2023/09/13 11:25:54;;;;;;;;;;;;;;;29.10;57.83;100637.89;105363;1278;64212;-87
2023/09/13 11:28:48;;;;;;;;;;;;;;;29.16;57.47;100635.02;105656;1273;124804;-85
2023/09/13 11:31:57;;;;;;;;;;;;;;;29.19;57.04;100626.53;105661;1272;62293;-85
2023/09/13 11:34:24;;;;;;;;;;;;;;;29.16;56.31;100619.86;105332;1273;125474;-85
2023/09/13 11:36:56;;;;;;;;;;;;;;;29.13;56.03;100628.90;105641;1273;61302;-85
2023/09/13 11:39:25;;;;;;;;;;;;;;;29.07;55.74;100635.15;105531;1273;63823;-84
2023/09/13 11:41:53;;;;;;;;;;;;;;;29.01;55.45;100643.25;105330;1273;125594;-85
2023/09/13 11:44:20;;;;;;;;;;;;;;;28.95;55.35;100647.34;105526;1273;62062;-86
2023/09/13 11:46:48;;;;;;;;;;;;;;;28.93;55.53;100647.63;105418;1273;124819;-86
2023/09/13 11:49:28;;;;;;;;;;;;;;;28.97;55.42;100651.41;105773;1268;61839;-85
2023/09/13 11:52:05;;;;;;;;;;;;;;;28.97;55.19;100650.12;105872;1268;125011;-84
2023/09/13 11:54:34;;;;;;;;;;;;;;;28.97;54.85;100648.49;105900;1276;62216;-84
2023/09/13 11:57:02;;;;;;;;;;;;;;;28.93;54.67;100652.86;106054;1269;62139;-84
2023/09/13 11:59:35;;;;;;;;;;;;;;;28.88;54.36;100655.47;106109;1268;125092;-85
2023/09/13 12:02:03;;;;;;;;;;;;;;;28.84;54.09;100656.05;106137;1267;62116;-83
2023/09/13 12:04:29;;;;;;;;;;;;;;;28.77;53.90;100655.67;105921;1272;123788;-84
2023/09/13 12:06:56;;;;;;;;;;;;;;;28.80;53.75;100656.80;106024;1275;60255;-84
2023/09/13 12:09:28;;;;;;;;;;;;;;;28.85;53.53;100655.77;106206;1268;62171;-84
2023/09/13 12:11:55;;;;;;;;;;;;;;;28.97;53.22;100654.61;105947;1272;124299;-85
2023/09/13 12:14:22;;;;;;;;;;;;;;;29.08;52.82;100651.70;105923;1267;60184;-85
2023/09/13 12:16:49;;;;;;;;;;;;;;;29.12;52.59;100644.98;105709;1273;124980;-83
2023/09/13 12:19:18;;;;;;;;;;;;;;;29.19;52.57;100643.55;105999;1267;60127;-84
2023/09/13 12:21:45;;;;;;;;;;;;;;;29.26;52.32;100648.40;105623;1268;125303;-85
2023/09/13 12:24:22;;;;;;;;;;;;;;;29.31;52.11;100647.23;105994;1268;66867;-85
2023/09/13 12:26:52;;;;;;;;;;;;;;;29.33;51.81;100651.30;105736;1268;60145;-88
2023/09/13 12:29:18;;;;;;;;;;;;;;;29.32;51.15;100646.45;105861;1268;125640;-86